sensor_id;sensor_type;location;lat;lon;timestamp;P1;durP1;ratioP1;P2;durP2;ratioP2
78312;SDS011;67568;47.438;21.408;2023-04-03T00:00:25;4.45;;;2.08;;
78312;SDS011;67568;47.438;21.408;2023-04-03T00:02:51;5.20;;;1.88;;
78312;SDS011;67568;47.438;21.408;2023-04-03T00:05:18;5.47;;;1.88;;
78312;SDS011;67568;47.438;21.408;2023-04-03T00:07:45;6.55;;;2.00;;
78312;SDS011;67568;47.438;21.408;2023-04-03T00:10:11;4.27;;;1.57;;
78312;SDS011;67568;47.438;21.408;2023-04-03T00:12:38;4.68;;;1.70;;
78312;SDS011;67568;47.438;21.408;2023-04-03T00:15:05;3.88;;;1.50;;
78312;SDS011;67568;47.438;21.408;2023-04-03T00:17:32;4.43;;;1.63;;
78312;SDS011;67568;47.438;21.408;2023-04-03T00:19:59;5.15;;;1.98;;
78312;SDS011;67568;47.438;21.408;2023-04-03T00:22:25;4.23;;;1.60;;
78312;SDS011;67568;47.438;21.408;2023-04-03T00:24:52;4.80;;;2.00;;
78312;SDS011;67568;47.438;21.408;2023-04-03T00:27:18;4.75;;;1.52;;
78312;SDS011;67568;47.438;21.408;2023-04-03T00:29:45;3.53;;;1.60;;
78312;SDS011;67568;47.438;21.408;2023-04-03T00:32:12;4.03;;;1.70;;
78312;SDS011;67568;47.438;21.408;2023-04-03T00:34:39;4.00;;;1.60;;
78312;SDS011;67568;47.438;21.408;2023-04-03T00:37:05;4.68;;;1.70;;
78312;SDS011;67568;47.438;21.408;2023-04-03T00:39:32;4.75;;;1.90;;
78312;SDS011;67568;47.438;21.408;2023-04-03T00:41:58;4.00;;;1.52;;
78312;SDS011;67568;47.438;21.408;2023-04-03T00:47:01;5.30;;;1.80;;
78312;SDS011;67568;47.438;21.408;2023-04-03T00:49:31;3.90;;;1.60;;
78312;SDS011;67568;47.438;21.408;2023-04-03T00:51:58;3.65;;;1.35;;
78312;SDS011;67568;47.438;21.408;2023-04-03T00:54:25;4.80;;;1.48;;
78312;SDS011;67568;47.438;21.408;2023-04-03T00:56:53;5.05;;;1.73;;
78312;SDS011;67568;47.438;21.408;2023-04-03T00:59:27;4.57;;;1.63;;
78312;SDS011;67568;47.438;21.408;2023-04-03T01:01:57;5.00;;;1.55;;
78312;SDS011;67568;47.438;21.408;2023-04-03T01:04:36;4.13;;;1.42;;
78312;SDS011;67568;47.438;21.408;2023-04-03T01:07:12;3.70;;;1.45;;
78312;SDS011;67568;47.438;21.408;2023-04-03T01:09:42;3.90;;;1.60;;
78312;SDS011;67568;47.438;21.408;2023-04-03T01:12:28;3.80;;;1.20;;
78312;SDS011;67568;47.438;21.408;2023-04-03T01:15:01;3.55;;;1.38;;
78312;SDS011;67568;47.438;21.408;2023-04-03T01:25:25;3.37;;;1.30;;
78312;SDS011;67568;47.438;21.408;2023-04-03T01:27:52;2.80;;;1.27;;
78312;SDS011;67568;47.438;21.408;2023-04-03T01:30:20;3.38;;;1.40;;
78312;SDS011;67568;47.438;21.408;2023-04-03T01:32:50;3.72;;;1.40;;
78312;SDS011;67568;47.438;21.408;2023-04-03T01:35:16;5.35;;;1.33;;
78312;SDS011;67568;47.438;21.408;2023-04-03T01:37:43;3.77;;;1.43;;
78312;SDS011;67568;47.438;21.408;2023-04-03T01:40:10;3.63;;;1.40;;
78312;SDS011;67568;47.438;21.408;2023-04-03T01:42:37;4.93;;;1.60;;
78312;SDS011;67568;47.438;21.408;2023-04-03T01:45:03;3.38;;;1.55;;
78312;SDS011;67568;47.438;21.408;2023-04-03T01:47:30;4.35;;;1.60;;
78312;SDS011;67568;47.438;21.408;2023-04-03T01:49:57;2.83;;;1.40;;
78312;SDS011;67568;47.438;21.408;2023-04-03T01:52:23;4.10;;;1.38;;
78312;SDS011;67568;47.438;21.408;2023-04-03T01:54:50;3.35;;;1.42;;
78312;SDS011;67568;47.438;21.408;2023-04-03T01:57:17;5.32;;;1.67;;
78312;SDS011;67568;47.438;21.408;2023-04-03T01:59:44;3.40;;;1.25;;
78312;SDS011;67568;47.438;21.408;2023-04-03T02:02:10;5.27;;;1.50;;
78312;SDS011;67568;47.438;21.408;2023-04-03T02:04:37;2.67;;;1.15;;
78312;SDS011;67568;47.438;21.408;2023-04-03T02:07:03;4.80;;;1.50;;
78312;SDS011;67568;47.438;21.408;2023-04-03T02:09:30;4.40;;;1.70;;
78312;SDS011;67568;47.438;21.408;2023-04-03T02:11:57;4.20;;;1.63;;
78312;SDS011;67568;47.438;21.408;2023-04-03T02:14:23;4.13;;;1.73;;
78312;SDS011;67568;47.438;21.408;2023-04-03T02:16:50;4.78;;;1.73;;
78312;SDS011;67568;47.438;21.408;2023-04-03T02:19:16;3.33;;;1.40;;
78312;SDS011;67568;47.438;21.408;2023-04-03T02:21:43;4.38;;;1.80;;
78312;SDS011;67568;47.438;21.408;2023-04-03T02:24:10;4.30;;;1.60;;
78312;SDS011;67568;47.438;21.408;2023-04-03T02:26:36;4.20;;;1.57;;
78312;SDS011;67568;47.438;21.408;2023-04-03T02:29:03;3.47;;;1.40;;
78312;SDS011;67568;47.438;21.408;2023-04-03T02:31:30;4.03;;;1.40;;
78312;SDS011;67568;47.438;21.408;2023-04-03T02:33:57;3.60;;;1.23;;
78312;SDS011;67568;47.438;21.408;2023-04-03T02:36:23;3.95;;;1.33;;
78312;SDS011;67568;47.438;21.408;2023-04-03T02:38:50;3.87;;;1.60;;
78312;SDS011;67568;47.438;21.408;2023-04-03T02:41:16;3.40;;;1.30;;
78312;SDS011;67568;47.438;21.408;2023-04-03T02:43:43;4.10;;;1.40;;
78312;SDS011;67568;47.438;21.408;2023-04-03T02:46:10;4.40;;;1.48;;
78312;SDS011;67568;47.438;21.408;2023-04-03T02:48:36;3.92;;;1.38;;
78312;SDS011;67568;47.438;21.408;2023-04-03T02:51:03;4.00;;;1.60;;
78312;SDS011;67568;47.438;21.408;2023-04-03T02:53:30;4.45;;;1.52;;
78312;SDS011;67568;47.438;21.408;2023-04-03T02:55:57;3.85;;;1.40;;
78312;SDS011;67568;47.438;21.408;2023-04-03T02:58:23;4.15;;;1.45;;
78312;SDS011;67568;47.438;21.408;2023-04-03T03:00:50;4.53;;;1.70;;
78312;SDS011;67568;47.438;21.408;2023-04-03T03:03:16;5.13;;;1.77;;
78312;SDS011;67568;47.438;21.408;2023-04-03T03:05:43;3.95;;;1.60;;
78312;SDS011;67568;47.438;21.408;2023-04-03T03:08:10;3.78;;;1.60;;
78312;SDS011;67568;47.438;21.408;2023-04-03T03:10:36;3.47;;;1.40;;
78312;SDS011;67568;47.438;21.408;2023-04-03T03:13:04;3.95;;;1.42;;
78312;SDS011;67568;47.438;21.408;2023-04-03T03:15:30;4.60;;;1.50;;
78312;SDS011;67568;47.438;21.408;2023-04-03T03:17:57;6.32;;;1.60;;
78312;SDS011;67568;47.438;21.408;2023-04-03T03:20:24;3.83;;;1.60;;
78312;SDS011;67568;47.438;21.408;2023-04-03T03:22:50;4.55;;;1.60;;
78312;SDS011;67568;47.438;21.408;2023-04-03T03:25:17;4.60;;;1.80;;
78312;SDS011;67568;47.438;21.408;2023-04-03T03:27:44;3.93;;;1.50;;
78312;SDS011;67568;47.438;21.408;2023-04-03T03:30:10;4.88;;;1.60;;
78312;SDS011;67568;47.438;21.408;2023-04-03T03:32:37;4.82;;;1.80;;
78312;SDS011;67568;47.438;21.408;2023-04-03T03:35:04;5.20;;;1.70;;
78312;SDS011;67568;47.438;21.408;2023-04-03T03:37:31;4.90;;;1.63;;
78312;SDS011;67568;47.438;21.408;2023-04-03T03:39:57;5.10;;;1.77;;
78312;SDS011;67568;47.438;21.408;2023-04-03T03:42:24;5.13;;;2.13;;
78312;SDS011;67568;47.438;21.408;2023-04-03T03:44:50;9.32;;;1.67;;
78312;SDS011;67568;47.438;21.408;2023-04-03T03:47:17;4.78;;;1.40;;
78312;SDS011;67568;47.438;21.408;2023-04-03T03:49:43;4.28;;;1.92;;
78312;SDS011;67568;47.438;21.408;2023-04-03T03:52:10;4.23;;;1.60;;
78312;SDS011;67568;47.438;21.408;2023-04-03T03:54:37;4.35;;;1.63;;
78312;SDS011;67568;47.438;21.408;2023-04-03T03:57:04;5.18;;;1.88;;
78312;SDS011;67568;47.438;21.408;2023-04-03T03:59:30;5.03;;;1.70;;
78312;SDS011;67568;47.438;21.408;2023-04-03T04:01:57;4.47;;;1.85;;
78312;SDS011;67568;47.438;21.408;2023-04-03T04:04:24;4.43;;;1.60;;
78312;SDS011;67568;47.438;21.408;2023-04-03T04:06:50;4.00;;;1.58;;
78312;SDS011;67568;47.438;21.408;2023-04-03T04:09:17;4.38;;;1.60;;
78312;SDS011;67568;47.438;21.408;2023-04-03T04:11:44;3.47;;;1.35;;
78312;SDS011;67568;47.438;21.408;2023-04-03T04:14:10;5.28;;;1.48;;
78312;SDS011;67568;47.438;21.408;2023-04-03T04:16:37;4.20;;;1.40;;
78312;SDS011;67568;47.438;21.408;2023-04-03T04:19:03;4.05;;;1.50;;
78312;SDS011;67568;47.438;21.408;2023-04-03T04:21:33;5.50;;;1.80;;
78312;SDS011;67568;47.438;21.408;2023-04-03T04:24:00;4.20;;;1.80;;
78312;SDS011;67568;47.438;21.408;2023-04-03T04:26:27;13.75;;;6.15;;
78312;SDS011;67568;47.438;21.408;2023-04-03T04:28:53;8.13;;;3.70;;
78312;SDS011;67568;47.438;21.408;2023-04-03T04:31:20;5.10;;;2.13;;
78312;SDS011;67568;47.438;21.408;2023-04-03T04:33:46;5.13;;;1.70;;
78312;SDS011;67568;47.438;21.408;2023-04-03T04:36:13;4.25;;;1.58;;
78312;SDS011;67568;47.438;21.408;2023-04-03T04:38:40;4.65;;;1.80;;
78312;SDS011;67568;47.438;21.408;2023-04-03T04:41:07;4.00;;;1.50;;
78312;SDS011;67568;47.438;21.408;2023-04-03T04:43:35;4.55;;;1.60;;
78312;SDS011;67568;47.438;21.408;2023-04-03T04:46:08;5.13;;;1.95;;
78312;SDS011;67568;47.438;21.408;2023-04-03T04:48:36;4.10;;;1.55;;
78312;SDS011;67568;47.438;21.408;2023-04-03T04:51:03;4.22;;;1.70;;
78312;SDS011;67568;47.438;21.408;2023-04-03T04:53:30;5.10;;;1.90;;
78312;SDS011;67568;47.438;21.408;2023-04-03T04:55:56;3.92;;;1.63;;
78312;SDS011;67568;47.438;21.408;2023-04-03T04:58:23;4.72;;;1.90;;
78312;SDS011;67568;47.438;21.408;2023-04-03T05:00:50;3.92;;;1.63;;
78312;SDS011;67568;47.438;21.408;2023-04-03T05:03:16;4.35;;;1.70;;
78312;SDS011;67568;47.438;21.408;2023-04-03T05:05:43;4.90;;;1.80;;
78312;SDS011;67568;47.438;21.408;2023-04-03T05:08:09;7.88;;;1.70;;
78312;SDS011;67568;47.438;21.408;2023-04-03T05:10:36;3.83;;;1.48;;
78312;SDS011;67568;47.438;21.408;2023-04-03T05:13:02;4.72;;;1.50;;
78312;SDS011;67568;47.438;21.408;2023-04-03T05:15:29;4.43;;;1.70;;
78312;SDS011;67568;47.438;21.408;2023-04-03T05:17:56;5.13;;;1.63;;
78312;SDS011;67568;47.438;21.408;2023-04-03T05:20:22;3.78;;;1.40;;
78312;SDS011;67568;47.438;21.408;2023-04-03T05:22:49;4.63;;;1.50;;
78312;SDS011;67568;47.438;21.408;2023-04-03T05:25:16;4.90;;;1.50;;
78312;SDS011;67568;47.438;21.408;2023-04-03T05:27:42;3.65;;;1.35;;
78312;SDS011;67568;47.438;21.408;2023-04-03T05:30:09;4.50;;;1.60;;
78312;SDS011;67568;47.438;21.408;2023-04-03T05:32:36;4.40;;;1.50;;
78312;SDS011;67568;47.438;21.408;2023-04-03T05:35:13;3.45;;;1.30;;
78312;SDS011;67568;47.438;21.408;2023-04-03T05:37:40;4.55;;;1.38;;
78312;SDS011;67568;47.438;21.408;2023-04-03T05:40:07;3.95;;;1.50;;
78312;SDS011;67568;47.438;21.408;2023-04-03T05:42:35;4.73;;;1.47;;
78312;SDS011;67568;47.438;21.408;2023-04-03T05:45:01;5.38;;;1.20;;
78312;SDS011;67568;47.438;21.408;2023-04-03T05:47:28;3.65;;;1.38;;
78312;SDS011;67568;47.438;21.408;2023-04-03T05:49:57;2.92;;;1.00;;
78312;SDS011;67568;47.438;21.408;2023-04-03T05:52:27;2.97;;;1.00;;
78312;SDS011;67568;47.438;21.408;2023-04-03T05:54:57;3.10;;;0.90;;
78312;SDS011;67568;47.438;21.408;2023-04-03T05:57:26;2.50;;;0.90;;
78312;SDS011;67568;47.438;21.408;2023-04-03T05:59:53;3.80;;;1.20;;
78312;SDS011;67568;47.438;21.408;2023-04-03T06:02:20;2.40;;;0.85;;
78312;SDS011;67568;47.438;21.408;2023-04-03T06:04:51;3.30;;;1.20;;
78312;SDS011;67568;47.438;21.408;2023-04-03T06:07:20;2.83;;;1.10;;
78312;SDS011;67568;47.438;21.408;2023-04-03T06:09:48;3.75;;;1.10;;
78312;SDS011;67568;47.438;21.408;2023-04-03T06:12:17;4.97;;;1.10;;
78312;SDS011;67568;47.438;21.408;2023-04-03T06:14:44;2.97;;;0.98;;
78312;SDS011;67568;47.438;21.408;2023-04-03T06:17:11;3.20;;;1.23;;
78312;SDS011;67568;47.438;21.408;2023-04-03T06:19:39;3.07;;;1.27;;
78312;SDS011;67568;47.438;21.408;2023-04-03T06:22:05;4.38;;;0.77;;
78312;SDS011;67568;47.438;21.408;2023-04-03T06:24:32;3.65;;;1.25;;
78312;SDS011;67568;47.438;21.408;2023-04-03T06:27:01;3.53;;;1.20;;
78312;SDS011;67568;47.438;21.408;2023-04-03T06:29:28;3.65;;;1.17;;
78312;SDS011;67568;47.438;21.408;2023-04-03T06:31:54;2.30;;;1.00;;
78312;SDS011;67568;47.438;21.408;2023-04-03T06:34:24;3.90;;;1.45;;
78312;SDS011;67568;47.438;21.408;2023-04-03T06:36:51;3.08;;;1.10;;
78312;SDS011;67568;47.438;21.408;2023-04-03T06:39:18;2.88;;;0.88;;
78312;SDS011;67568;47.438;21.408;2023-04-03T06:41:46;3.92;;;1.00;;
78312;SDS011;67568;47.438;21.408;2023-04-03T06:44:13;2.33;;;0.80;;
78312;SDS011;67568;47.438;21.408;2023-04-03T06:46:40;2.55;;;0.80;;
78312;SDS011;67568;47.438;21.408;2023-04-03T06:49:06;2.15;;;1.00;;
78312;SDS011;67568;47.438;21.408;2023-04-03T06:51:36;3.30;;;0.80;;
78312;SDS011;67568;47.438;21.408;2023-04-03T06:54:03;1.98;;;0.80;;
78312;SDS011;67568;47.438;21.408;2023-04-03T06:56:31;2.23;;;0.70;;
78312;SDS011;67568;47.438;21.408;2023-04-03T06:58:58;2.42;;;0.80;;
78312;SDS011;67568;47.438;21.408;2023-04-03T07:01:31;6.53;;;0.85;;
78312;SDS011;67568;47.438;21.408;2023-04-03T07:03:58;2.70;;;0.80;;
78312;SDS011;67568;47.438;21.408;2023-04-03T07:06:25;2.00;;;0.70;;
78312;SDS011;67568;47.438;21.408;2023-04-03T07:08:55;2.07;;;0.60;;
78312;SDS011;67568;47.438;21.408;2023-04-03T07:11:21;2.20;;;0.80;;
78312;SDS011;67568;47.438;21.408;2023-04-03T07:13:48;6.38;;;1.60;;
78312;SDS011;67568;47.438;21.408;2023-04-03T07:16:15;4.15;;;1.30;;
78312;SDS011;67568;47.438;21.408;2023-04-03T07:18:42;2.80;;;0.80;;
78312;SDS011;67568;47.438;21.408;2023-04-03T07:21:09;3.17;;;1.07;;
78312;SDS011;67568;47.438;21.408;2023-04-03T07:23:36;3.08;;;0.70;;
78312;SDS011;67568;47.438;21.408;2023-04-03T07:26:02;2.45;;;0.90;;
78312;SDS011;67568;47.438;21.408;2023-04-03T07:28:29;2.20;;;0.73;;
78312;SDS011;67568;47.438;21.408;2023-04-03T07:31:00;2.45;;;0.60;;
78312;SDS011;67568;47.438;21.408;2023-04-03T07:33:26;4.37;;;0.80;;
78312;SDS011;67568;47.438;21.408;2023-04-03T07:35:53;3.67;;;0.70;;
78312;SDS011;67568;47.438;21.408;2023-04-03T07:38:20;5.10;;;0.88;;
78312;SDS011;67568;47.438;21.408;2023-04-03T07:40:47;2.40;;;0.90;;
78312;SDS011;67568;47.438;21.408;2023-04-03T07:43:15;4.80;;;0.70;;
78312;SDS011;67568;47.438;21.408;2023-04-03T07:45:43;1.63;;;0.50;;
78312;SDS011;67568;47.438;21.408;2023-04-03T07:48:11;2.65;;;0.60;;
78312;SDS011;67568;47.438;21.408;2023-04-03T07:50:42;8.98;;;0.80;;
78312;SDS011;67568;47.438;21.408;2023-04-03T07:53:10;2.95;;;0.50;;
78312;SDS011;67568;47.438;21.408;2023-04-03T07:55:37;3.55;;;0.50;;
78312;SDS011;67568;47.438;21.408;2023-04-03T07:58:04;4.03;;;0.60;;
78312;SDS011;67568;47.438;21.408;2023-04-03T08:00:32;2.42;;;0.60;;
78312;SDS011;67568;47.438;21.408;2023-04-03T08:02:58;3.78;;;0.50;;
78312;SDS011;67568;47.438;21.408;2023-04-03T08:05:25;8.63;;;0.80;;
78312;SDS011;67568;47.438;21.408;2023-04-03T08:07:52;6.43;;;0.85;;
78312;SDS011;67568;47.438;21.408;2023-04-03T08:10:18;4.97;;;0.70;;
78312;SDS011;67568;47.438;21.408;2023-04-03T08:12:46;5.05;;;0.70;;
78312;SDS011;67568;47.438;21.408;2023-04-03T08:15:14;3.47;;;0.88;;
78312;SDS011;67568;47.438;21.408;2023-04-03T08:17:44;3.88;;;0.82;;
78312;SDS011;67568;47.438;21.408;2023-04-03T08:20:10;8.45;;;1.75;;
78312;SDS011;67568;47.438;21.408;2023-04-03T08:22:42;7.13;;;0.97;;
78312;SDS011;67568;47.438;21.408;2023-04-03T08:25:08;7.90;;;0.85;;
78312;SDS011;67568;47.438;21.408;2023-04-03T08:27:38;5.63;;;1.10;;
78312;SDS011;67568;47.438;21.408;2023-04-03T08:30:07;5.57;;;0.70;;
78312;SDS011;67568;47.438;21.408;2023-04-03T08:32:34;5.57;;;0.80;;
78312;SDS011;67568;47.438;21.408;2023-04-03T08:35:05;4.83;;;0.73;;
78312;SDS011;67568;47.438;21.408;2023-04-03T08:37:31;6.40;;;0.95;;
78312;SDS011;67568;47.438;21.408;2023-04-03T08:40:04;6.32;;;0.90;;
78312;SDS011;67568;47.438;21.408;2023-04-03T08:45:38;8.10;;;2.10;;
78312;SDS011;67568;47.438;21.408;2023-04-03T08:48:14;6.70;;;0.80;;
78312;SDS011;67568;47.438;21.408;2023-04-03T08:50:43;6.47;;;0.90;;
78312;SDS011;67568;47.438;21.408;2023-04-03T08:53:14;6.40;;;0.80;;
78312;SDS011;67568;47.438;21.408;2023-04-03T08:55:45;2.72;;;0.90;;
78312;SDS011;67568;47.438;21.408;2023-04-03T08:58:23;3.72;;;0.80;;
78312;SDS011;67568;47.438;21.408;2023-04-03T09:03:32;5.97;;;1.35;;
78312;SDS011;67568;47.438;21.408;2023-04-03T09:06:14;6.22;;;0.80;;
78312;SDS011;67568;47.438;21.408;2023-04-03T09:22:01;6.35;;;0.70;;
78312;SDS011;67568;47.438;21.408;2023-04-03T09:24:37;5.20;;;0.80;;
78312;SDS011;67568;47.438;21.408;2023-04-03T09:27:05;3.40;;;0.70;;
78312;SDS011;67568;47.438;21.408;2023-04-03T09:29:42;9.27;;;1.77;;
78312;SDS011;67568;47.438;21.408;2023-04-03T09:32:30;10.25;;;0.85;;
78312;SDS011;67568;47.438;21.408;2023-04-03T09:34:59;9.60;;;0.80;;
78312;SDS011;67568;47.438;21.408;2023-04-03T09:37:50;6.20;;;0.90;;
78312;SDS011;67568;47.438;21.408;2023-04-03T09:42:53;6.78;;;0.70;;
78312;SDS011;67568;47.438;21.408;2023-04-03T09:55:54;10.23;;;0.85;;
78312;SDS011;67568;47.438;21.408;2023-04-03T09:58:31;6.60;;;0.82;;
78312;SDS011;67568;47.438;21.408;2023-04-03T10:01:35;12.52;;;1.08;;
78312;SDS011;67568;47.438;21.408;2023-04-03T10:04:07;11.70;;;1.17;;
78312;SDS011;67568;47.438;21.408;2023-04-03T10:06:58;11.20;;;0.90;;
78312;SDS011;67568;47.438;21.408;2023-04-03T10:09:31;8.68;;;0.80;;
78312;SDS011;67568;47.438;21.408;2023-04-03T10:14:33;11.20;;;1.52;;
78312;SDS011;67568;47.438;21.408;2023-04-03T10:19:39;12.87;;;1.30;;
78312;SDS011;67568;47.438;21.408;2023-04-03T10:22:13;7.78;;;1.15;;
78312;SDS011;67568;47.438;21.408;2023-04-03T10:30:32;12.82;;;1.27;;
78312;SDS011;67568;47.438;21.408;2023-04-03T10:41:28;8.52;;;1.02;;
78312;SDS011;67568;47.438;21.408;2023-04-03T10:47:18;10.90;;;1.00;;
78312;SDS011;67568;47.438;21.408;2023-04-03T10:50:10;13.43;;;1.42;;
78312;SDS011;67568;47.438;21.408;2023-04-03T10:58:45;11.48;;;1.38;;
78312;SDS011;67568;47.438;21.408;2023-04-03T11:01:21;18.67;;;1.40;;
78312;SDS011;67568;47.438;21.408;2023-04-03T11:03:53;11.88;;;1.20;;
78312;SDS011;67568;47.438;21.408;2023-04-03T11:06:22;13.18;;;1.00;;
78312;SDS011;67568;47.438;21.408;2023-04-03T11:11:44;7.28;;;0.85;;
78312;SDS011;67568;47.438;21.408;2023-04-03T11:14:17;8.23;;;0.97;;
78312;SDS011;67568;47.438;21.408;2023-04-03T11:16:47;10.75;;;1.55;;
78312;SDS011;67568;47.438;21.408;2023-04-03T11:19:20;13.52;;;0.90;;
78312;SDS011;67568;47.438;21.408;2023-04-03T11:21:57;10.73;;;0.90;;
78312;SDS011;67568;47.438;21.408;2023-04-03T11:24:32;13.52;;;0.98;;
78312;SDS011;67568;47.438;21.408;2023-04-03T11:27:00;9.17;;;1.00;;
78312;SDS011;67568;47.438;21.408;2023-04-03T11:29:34;12.55;;;1.17;;
78312;SDS011;67568;47.438;21.408;2023-04-03T11:35:13;16.30;;;1.73;;
78312;SDS011;67568;47.438;21.408;2023-04-03T11:37:44;12.05;;;1.30;;
78312;SDS011;67568;47.438;21.408;2023-04-03T11:45:33;24.38;;;1.75;;
78312;SDS011;67568;47.438;21.408;2023-04-03T11:48:09;17.25;;;1.25;;
78312;SDS011;67568;47.438;21.408;2023-04-03T11:51:00;11.57;;;1.20;;
78312;SDS011;67568;47.438;21.408;2023-04-03T11:53:40;13.40;;;1.40;;
78312;SDS011;67568;47.438;21.408;2023-04-03T12:04:11;16.13;;;1.90;;
78312;SDS011;67568;47.438;21.408;2023-04-03T12:12:25;19.77;;;1.38;;
78312;SDS011;67568;47.438;21.408;2023-04-03T12:15:17;16.83;;;2.38;;
78312;SDS011;67568;47.438;21.408;2023-04-03T12:17:45;12.65;;;1.63;;
78312;SDS011;67568;47.438;21.408;2023-04-03T12:23:29;10.95;;;1.42;;
78312;SDS011;67568;47.438;21.408;2023-04-03T12:26:00;11.05;;;1.30;;
78312;SDS011;67568;47.438;21.408;2023-04-03T12:28:40;13.38;;;1.38;;
78312;SDS011;67568;47.438;21.408;2023-04-03T12:31:08;19.35;;;2.17;;
78312;SDS011;67568;47.438;21.408;2023-04-03T12:36:36;18.08;;;2.13;;
78312;SDS011;67568;47.438;21.408;2023-04-03T12:39:13;18.73;;;1.88;;
78312;SDS011;67568;47.438;21.408;2023-04-03T12:47:25;18.27;;;2.53;;
78312;SDS011;67568;47.438;21.408;2023-04-03T12:50:00;17.15;;;1.92;;
78312;SDS011;67568;47.438;21.408;2023-04-03T12:52:35;14.95;;;2.40;;
78312;SDS011;67568;47.438;21.408;2023-04-03T12:55:16;16.60;;;1.48;;
78312;SDS011;67568;47.438;21.408;2023-04-03T12:57:44;10.90;;;1.40;;
78312;SDS011;67568;47.438;21.408;2023-04-03T13:00:41;24.03;;;1.90;;
78312;SDS011;67568;47.438;21.408;2023-04-03T13:03:19;21.85;;;1.98;;
78312;SDS011;67568;47.438;21.408;2023-04-03T13:05:53;19.48;;;1.92;;
78312;SDS011;67568;47.438;21.408;2023-04-03T13:08:23;23.23;;;1.55;;
78312;SDS011;67568;47.438;21.408;2023-04-03T13:10:54;29.63;;;2.13;;
78312;SDS011;67568;47.438;21.408;2023-04-03T13:13:22;13.27;;;1.10;;
78312;SDS011;67568;47.438;21.408;2023-04-03T13:15:49;15.45;;;1.40;;
78312;SDS011;67568;47.438;21.408;2023-04-03T13:20:49;27.88;;;2.22;;
78312;SDS011;67568;47.438;21.408;2023-04-03T13:23:17;27.52;;;2.72;;
78312;SDS011;67568;47.438;21.408;2023-04-03T13:25:53;18.50;;;2.07;;
78312;SDS011;67568;47.438;21.408;2023-04-03T13:28:25;30.80;;;2.55;;
78312;SDS011;67568;47.438;21.408;2023-04-03T13:31:03;31.67;;;3.42;;
78312;SDS011;67568;47.438;21.408;2023-04-03T13:33:52;24.98;;;2.67;;
78312;SDS011;67568;47.438;21.408;2023-04-03T13:36:38;22.75;;;1.85;;
78312;SDS011;67568;47.438;21.408;2023-04-03T13:39:20;20.63;;;1.80;;
78312;SDS011;67568;47.438;21.408;2023-04-03T13:41:53;26.40;;;2.95;;
78312;SDS011;67568;47.438;21.408;2023-04-03T13:44:29;28.17;;;2.45;;
78312;SDS011;67568;47.438;21.408;2023-04-03T13:49:37;15.82;;;2.10;;
78312;SDS011;67568;47.438;21.408;2023-04-03T13:55:01;25.02;;;2.67;;
78312;SDS011;67568;47.438;21.408;2023-04-03T13:57:52;43.90;;;4.47;;
78312;SDS011;67568;47.438;21.408;2023-04-03T14:00:33;40.55;;;2.92;;
78312;SDS011;67568;47.438;21.408;2023-04-03T14:03:31;31.08;;;2.80;;
78312;SDS011;67568;47.438;21.408;2023-04-03T14:06:00;31.37;;;2.17;;
78312;SDS011;67568;47.438;21.408;2023-04-03T14:08:28;24.15;;;2.58;;
78312;SDS011;67568;47.438;21.408;2023-04-03T14:11:17;32.08;;;2.47;;
78312;SDS011;67568;47.438;21.408;2023-04-03T14:13:47;35.13;;;2.78;;
78312;SDS011;67568;47.438;21.408;2023-04-03T14:16:15;33.47;;;2.03;;
78312;SDS011;67568;47.438;21.408;2023-04-03T14:18:45;22.03;;;2.30;;
78312;SDS011;67568;47.438;21.408;2023-04-03T14:21:12;22.15;;;2.10;;
78312;SDS011;67568;47.438;21.408;2023-04-03T14:23:41;41.47;;;4.10;;
78312;SDS011;67568;47.438;21.408;2023-04-03T14:26:10;28.60;;;2.28;;
78312;SDS011;67568;47.438;21.408;2023-04-03T14:28:39;29.52;;;3.22;;
78312;SDS011;67568;47.438;21.408;2023-04-03T14:31:09;29.27;;;2.40;;
78312;SDS011;67568;47.438;21.408;2023-04-03T14:33:38;24.60;;;2.92;;
78312;SDS011;67568;47.438;21.408;2023-04-03T14:38:44;20.80;;;2.65;;
78312;SDS011;67568;47.438;21.408;2023-04-03T14:41:15;26.90;;;2.78;;
78312;SDS011;67568;47.438;21.408;2023-04-03T14:43:44;32.33;;;2.80;;
78312;SDS011;67568;47.438;21.408;2023-04-03T14:46:31;35.22;;;2.60;;
78312;SDS011;67568;47.438;21.408;2023-04-03T14:49:21;39.67;;;2.78;;
78312;SDS011;67568;47.438;21.408;2023-04-03T14:51:51;35.92;;;3.13;;
78312;SDS011;67568;47.438;21.408;2023-04-03T14:54:19;34.38;;;3.17;;
78312;SDS011;67568;47.438;21.408;2023-04-03T14:56:47;30.13;;;3.03;;
78312;SDS011;67568;47.438;21.408;2023-04-03T14:59:14;22.13;;;3.10;;
78312;SDS011;67568;47.438;21.408;2023-04-03T15:01:41;24.30;;;3.78;;
78312;SDS011;67568;47.438;21.408;2023-04-03T15:04:25;24.85;;;2.47;;
78312;SDS011;67568;47.438;21.408;2023-04-03T15:06:52;25.88;;;3.03;;
78312;SDS011;67568;47.438;21.408;2023-04-03T15:09:20;25.10;;;2.83;;
78312;SDS011;67568;47.438;21.408;2023-04-03T15:11:49;27.52;;;2.78;;
78312;SDS011;67568;47.438;21.408;2023-04-03T15:14:17;20.95;;;3.08;;
78312;SDS011;67568;47.438;21.408;2023-04-03T15:17:01;19.10;;;2.70;;
78312;SDS011;67568;47.438;21.408;2023-04-03T15:19:29;18.98;;;2.72;;
78312;SDS011;67568;47.438;21.408;2023-04-03T15:21:59;33.33;;;2.37;;
78312;SDS011;67568;47.438;21.408;2023-04-03T15:24:25;17.67;;;2.00;;
78312;SDS011;67568;47.438;21.408;2023-04-03T15:26:52;23.25;;;2.47;;
78312;SDS011;67568;47.438;21.408;2023-04-03T15:29:19;31.95;;;2.50;;
78312;SDS011;67568;47.438;21.408;2023-04-03T15:31:45;19.67;;;2.70;;
78312;SDS011;67568;47.438;21.408;2023-04-03T15:34:12;31.67;;;3.10;;
78312;SDS011;67568;47.438;21.408;2023-04-03T15:36:43;19.88;;;2.00;;
78312;SDS011;67568;47.438;21.408;2023-04-03T15:39:10;23.70;;;2.25;;
78312;SDS011;67568;47.438;21.408;2023-04-03T15:41:37;26.35;;;3.03;;
78312;SDS011;67568;47.438;21.408;2023-04-03T15:44:03;28.27;;;2.75;;
78312;SDS011;67568;47.438;21.408;2023-04-03T15:46:30;23.53;;;3.20;;
78312;SDS011;67568;47.438;21.408;2023-04-03T15:48:57;26.55;;;2.30;;
78312;SDS011;67568;47.438;21.408;2023-04-03T15:51:23;25.60;;;2.55;;
78312;SDS011;67568;47.438;21.408;2023-04-03T15:53:50;20.70;;;2.10;;
78312;SDS011;67568;47.438;21.408;2023-04-03T15:56:16;19.50;;;2.40;;
78312;SDS011;67568;47.438;21.408;2023-04-03T15:58:43;19.67;;;2.50;;
78312;SDS011;67568;47.438;21.408;2023-04-03T16:01:09;31.33;;;2.83;;
78312;SDS011;67568;47.438;21.408;2023-04-03T16:03:37;23.08;;;2.22;;
78312;SDS011;67568;47.438;21.408;2023-04-03T16:06:07;27.33;;;2.55;;
78312;SDS011;67568;47.438;21.408;2023-04-03T16:08:33;27.33;;;2.38;;
78312;SDS011;67568;47.438;21.408;2023-04-03T16:11:00;25.73;;;2.40;;
78312;SDS011;67568;47.438;21.408;2023-04-03T16:13:27;16.92;;;2.15;;
78312;SDS011;67568;47.438;21.408;2023-04-03T16:15:54;38.75;;;2.30;;
78312;SDS011;67568;47.438;21.408;2023-04-03T16:18:21;35.95;;;2.63;;
78312;SDS011;67568;47.438;21.408;2023-04-03T16:20:48;22.13;;;2.80;;
78312;SDS011;67568;47.438;21.408;2023-04-03T16:23:15;19.53;;;2.77;;
78312;SDS011;67568;47.438;21.408;2023-04-03T16:25:47;16.50;;;2.70;;
78312;SDS011;67568;47.438;21.408;2023-04-03T16:28:14;21.30;;;2.80;;
78312;SDS011;67568;47.438;21.408;2023-04-03T16:30:42;17.45;;;2.10;;
78312;SDS011;67568;47.438;21.408;2023-04-03T16:33:10;14.55;;;2.28;;
78312;SDS011;67568;47.438;21.408;2023-04-03T16:35:38;10.63;;;2.10;;
78312;SDS011;67568;47.438;21.408;2023-04-03T16:38:05;19.85;;;2.20;;
78312;SDS011;67568;47.438;21.408;2023-04-03T16:40:32;24.52;;;2.38;;
78312;SDS011;67568;47.438;21.408;2023-04-03T16:42:59;21.80;;;2.30;;